Time;durP1;ratioP1;P1;durP2;ratioP2;P2;SDS_P1;SDS_P2;PMS_P1;PMS_P2;Temp;Humidity;BMP_temperature;BMP_pressure;BME280_temperature;BME280_humidity;BME280_pressure;Samples;Min_cycle;Max_cycle;Signal;HPM_P1;HPM_P2
2021/01/20 00:02:05;;;;;;;17.88;8.13;;;;;;;6.52;100.00;100194.81;6217946;23;20004;-87
2021/01/20 00:04:30;;;;;;;12.57;7.15;;;;;;;6.54;100.00;100172.00;6221264;23;20007;-87
2021/01/20 00:06:55;;;;;;;16.65;6.72;;;;;;;6.60;100.00;100194.53;6222645;23;20000;-86
2021/01/20 00:09:21;;;;;;;16.98;7.97;;;;;;;6.54;100.00;100171.16;6222267;23;20444;-87
2021/01/20 00:11:46;;;;;;;17.48;8.07;;;;;;;6.56;100.00;100185.06;6222133;23;19996;-86
2021/01/20 00:14:16;;;;;;;12.77;6.65;;;;;;;6.60;100.00;100186.66;6221953;23;20493;-86
2021/01/20 00:16:42;;;;;;;11.65;6.00;;;;;;;6.53;100.00;100159.78;6216786;23;20020;-86
2021/01/20 00:19:07;;;;;;;16.17;6.78;;;;;;;6.53;100.00;100174.69;6219055;23;20015;-85
2021/01/20 00:21:33;;;;;;;14.70;6.93;;;;;;;6.49;100.00;100158.19;6216769;23;20377;-86
2021/01/20 00:23:58;;;;;;;12.77;6.63;;;;;;;6.58;100.00;100173.59;6216266;23;20075;-86
2021/01/20 00:26:24;;;;;;;11.68;6.82;;;;;;;6.54;100.00;100163.28;6217769;23;20051;-86
2021/01/20 00:28:49;;;;;;;17.15;5.95;;;;;;;6.57;100.00;100165.75;6216422;23;20039;-85
2021/01/20 00:31:14;;;;;;;12.18;7.40;;;;;;;6.61;100.00;100169.97;6220310;23;20005;-86
2021/01/20 00:33:39;;;;;;;11.98;7.10;;;;;;;6.60;100.00;100169.13;6220847;23;20005;-86
2021/01/20 00:36:06;;;;;;;12.27;7.15;;;;;;;6.61;100.00;100143.72;6220083;23;20016;-86
2021/01/20 00:38:32;;;;;;;11.45;7.05;;;;;;;6.61;100.00;100159.47;6222906;23;20059;-86
2021/01/20 00:40:57;;;;;;;12.27;7.53;;;;;;;6.53;100.00;100140.56;6222110;23;20004;-86
2021/01/20 00:43:22;;;;;;;13.95;7.72;;;;;;;6.58;100.00;100149.13;6219675;23;20139;-86
2021/01/20 00:45:48;;;;;;;14.27;7.00;;;;;;;6.47;100.00;100133.75;6219592;23;20005;-86
2021/01/20 00:48:13;;;;;;;18.48;7.65;;;;;;;6.60;100.00;100165.66;6222260;23;20439;-86
2021/01/20 00:50:39;;;;;;;15.68;7.22;;;;;;;6.61;100.00;100143.72;6219698;23;20004;-86
2021/01/20 00:53:04;;;;;;;9.38;6.28;;;;;;;6.49;100.00;100117.03;6219980;23;20447;-86
2021/01/20 00:55:29;;;;;;;15.75;6.70;;;;;;;6.53;100.00;100165.03;6220279;23;20680;-86
2021/01/20 00:57:55;;;;;;;11.70;6.43;;;;;;;6.53;100.00;100127.44;6217737;23;20000;-87
2021/01/20 01:00:20;;;;;;;10.68;6.88;;;;;;;6.39;100.00;100114.84;6210468;23;20000;-87
2021/01/20 01:02:46;;;;;;;11.10;7.38;;;;;;;6.61;100.00;100138.47;6213759;23;20000;-86
2021/01/20 01:05:12;;;;;;;14.38;7.10;;;;;;;6.61;100.00;100133.22;6217685;23;20065;-87
2021/01/20 01:07:37;;;;;;;14.80;8.40;;;;;;;6.51;100.00;100103.84;6222076;23;20007;-86
2021/01/20 01:10:03;;;;;;;16.75;7.78;;;;;;;6.65;100.00;100127.78;6223695;23;20065;-86
2021/01/20 01:12:28;;;;;;;13.10;7.40;;;;;;;6.65;100.00;100125.16;6223587;23;20084;-85
2021/01/20 01:14:54;;;;;;;12.48;7.15;;;;;;;6.63;100.00;100118.28;6222967;23;20016;-86
2021/01/20 01:17:19;;;;;;;14.13;8.65;;;;;;;6.62;100.00;100111.28;6224256;23;20020;-86
2021/01/20 01:19:44;;;;;;;13.73;7.57;;;;;;;6.65;100.00;100122.53;6219065;23;20005;-86
2021/01/20 01:22:10;;;;;;;20.08;8.35;;;;;;;6.54;100.00;100105.50;6217313;23;20008;-87
2021/01/20 01:24:35;;;;;;;16.35;9.45;;;;;;;6.60;100.00;100116.63;6216952;23;20090;-87
2021/01/20 01:27:00;;;;;;;17.02;9.95;;;;;;;6.47;100.00;100110.97;6216395;23;20005;-87
2021/01/20 01:29:26;;;;;;;15.23;9.07;;;;;;;6.52;100.00;100117.81;6212977;23;20009;-87
2021/01/20 01:31:51;;;;;;;12.20;8.13;;;;;;;6.56;100.00;100116.78;6214896;23;20008;-86
2021/01/20 01:34:16;;;;;;;11.32;6.85;;;;;;;6.59;100.00;100109.66;6215547;23;20012;-86
2021/01/20 01:36:42;;;;;;;17.70;8.88;;;;;;;6.58;100.00;100118.47;6214911;23;20001;-87
2021/01/20 01:39:07;;;;;;;16.25;9.02;;;;;;;6.52;100.00;100112.56;6216961;23;20005;-87
2021/01/20 01:41:32;;;;;;;18.05;8.98;;;;;;;6.48;100.00;100096.09;6215043;23;20012;-87
2021/01/20 01:43:57;;;;;;;17.23;8.27;;;;;;;6.63;100.00;100113.88;6215504;23;20009;-87
2021/01/20 01:46:24;;;;;;;18.15;9.68;;;;;;;6.60;100.00;100103.47;6214232;23;20004;-87
2021/01/20 01:48:53;;;;;;;14.68;9.18;;;;;;;6.55;100.00;100087.06;6215613;23;20000;-86
2021/01/20 01:51:18;;;;;;;24.52;11.23;;;;;;;6.53;100.00;100078.41;6215875;23;20131;-86
2021/01/20 01:53:43;;;;;;;21.10;9.27;;;;;;;6.53;100.00;100080.19;6215946;23;20032;-87
2021/01/20 01:56:09;;;;;;;25.33;10.13;;;;;;;6.54;100.00;100081.88;6215023;23;20008;-87
2021/01/20 01:58:34;;;;;;;16.92;8.57;;;;;;;6.49;100.00;100080.28;6214287;23;20082;-87
2021/01/20 02:01:01;;;;;;;17.73;9.10;;;;;;;6.63;100.00;100111.25;6215654;23;20358;-88
2021/01/20 02:03:26;;;;;;;17.85;9.15;;;;;;;6.67;100.00;100094.44;6217554;23;20570;-85
2021/01/20 02:05:52;;;;;;;19.08;9.45;;;;;;;6.52;100.00;100065.31;6218491;23;20012;-86
2021/01/20 02:08:17;;;;;;;22.98;10.80;;;;;;;6.63;100.00;100084.16;6215573;23;20444;-86
2021/01/20 02:10:43;;;;;;;17.17;10.15;;;;;;;6.52;100.00;100076.66;6214916;23;20032;-85
2021/01/20 02:13:39;;;;;;;17.45;9.57;;;;;;;6.55;100.00;100076.56;6214658;23;20024;-86
2021/01/20 02:16:24;;;;;;;17.15;10.48;;;;;;;6.59;100.00;100069.41;6214566;23;20064;-87
2021/01/20 02:18:54;;;;;;;20.05;11.38;;;;;;;6.55;100.00;100068.69;6217535;23;20009;-86
2021/01/20 02:21:50;;;;;;;25.25;12.90;;;;;;;6.59;100.00;100077.31;6216934;23;20088;-86
2021/01/20 02:24:19;;;;;;;18.55;10.23;;;;;;;6.57;100.00;100066.00;6217563;23;20066;-85
2021/01/20 02:27:01;;;;;;;18.33;9.23;;;;;;;6.46;100.00;100041.03;6219325;23;20000;-86
2021/01/20 02:29:41;;;;;;;25.27;10.65;;;;;;;6.55;100.00;100049.44;6217442;23;20046;-88
2021/01/20 02:32:07;;;;;;;17.33;9.00;;;;;;;6.60;100.00;100055.38;6221935;23;20008;-86
2021/01/20 02:34:34;;;;;;;22.88;11.20;;;;;;;6.46;100.00;100027.03;6220688;23;20059;-85
2021/01/20 02:37:02;;;;;;;20.52;9.45;;;;;;;6.52;100.00;100026.78;6224101;23;20410;-86
2021/01/20 02:39:28;;;;;;;17.45;9.80;;;;;;;6.51;100.00;100032.97;6214862;23;20789;-87
2021/01/20 02:42:02;;;;;;;15.18;9.77;;;;;;;6.52;100.00;100003.16;6213805;23;20700;-86
2021/01/20 02:44:27;;;;;;;13.60;8.55;;;;;;;6.67;100.00;100028.78;6213748;23;20008;-89
2021/01/20 02:46:53;;;;;;;18.02;10.55;;;;;;;6.72;100.00;100031.22;6213684;23;20721;-87
2021/01/20 02:49:18;;;;;;;14.88;8.48;;;;;;;6.62;100.00;100008.88;6218722;23;20024;-86
2021/01/20 02:51:59;;;;;;;20.05;9.38;;;;;;;6.80;100.00;100023.03;6217336;23;20419;-86
2021/01/20 02:54:26;;;;;;;21.45;9.75;;;;;;;6.78;100.00;100009.97;6217576;23;20009;-89
2021/01/20 02:56:54;;;;;;;10.60;6.28;;;;;;;6.83;100.00;100041.28;6217801;23;20003;-86
2021/01/20 02:59:28;;;;;;;15.43;8.20;;;;;;;6.70;100.00;99998.94;6217809;23;20008;-88
2021/01/20 03:01:56;;;;;;;17.85;9.05;;;;;;;6.74;100.00;99990.88;6219515;23;20012;-87
2021/01/20 03:04:22;;;;;;;14.85;8.55;;;;;;;6.87;100.00;100000.84;6217970;23;20023;-87
2021/01/20 03:06:48;;;;;;;16.73;8.38;;;;;;;6.83;100.00;99988.75;6219805;23;20103;-85
2021/01/20 03:09:15;;;;;;;13.55;7.10;;;;;;;6.98;100.00;99996.00;6216506;23;20028;-86
2021/01/20 03:11:48;;;;;;;15.63;8.13;;;;;;;6.88;100.00;99986.81;6216028;23;20368;-85
2021/01/20 03:14:16;;;;;;;14.48;8.82;;;;;;;6.94;100.00;99994.44;6217433;23;20028;-88
2021/01/20 03:16:41;;;;;;;9.18;5.95;;;;;;;7.01;100.00;99999.34;6217988;23;20008;-84
2021/01/20 03:19:07;;;;;;;11.20;6.88;;;;;;;7.04;100.00;100005.41;6226297;23;20087;-86
2021/01/20 03:21:32;;;;;;;10.75;7.63;;;;;;;6.95;100.00;99985.63;6221541;23;20000;-88
2021/01/20 03:23:57;;;;;;;10.45;7.50;;;;;;;7.04;100.00;100001.00;6220822;23;20005;-86
2021/01/20 03:26:23;;;;;;;14.73;7.03;;;;;;;7.10;100.00;99998.09;6219682;23;19997;-84
2021/01/20 03:28:48;;;;;;;14.23;6.97;;;;;;;7.00;100.00;99975.75;6213638;23;20405;-84
2021/01/20 03:31:13;;;;;;;11.98;7.28;;;;;;;6.94;100.00;99974.25;6218129;23;20000;-86
2021/01/20 03:33:42;;;;;;;13.35;7.05;;;;;;;7.00;100.00;99975.75;6218483;23;20010;-88
2021/01/20 03:36:10;;;;;;;11.70;6.43;;;;;;;7.13;100.00;99997.09;6217524;23;20027;-87
2021/01/20 03:38:36;;;;;;;15.52;7.72;;;;;;;7.05;100.00;99968.53;6215156;23;20104;-87
2021/01/20 03:41:01;;;;;;;15.05;8.15;;;;;;;7.03;100.00;99982.63;6215341;23;20008;-87
2021/01/20 03:43:26;;;;;;;14.02;7.03;;;;;;;7.08;100.00;99992.06;6214892;23;20000;-87
2021/01/20 03:45:55;;;;;;;17.52;6.63;;;;;;;6.94;100.00;99971.63;6213582;23;20062;-87
2021/01/20 03:48:20;;;;;;;11.70;6.82;;;;;;;7.09;100.00;99992.91;6214381;23;19997;-88
2021/01/20 03:50:48;;;;;;;8.80;5.00;;;;;;;7.14;100.00;99988.31;6215972;23;20457;-88
2021/01/20 03:53:13;;;;;;;12.00;6.15;;;;;;;7.08;100.00;99978.03;6215996;23;20011;-87
2021/01/20 03:55:39;;;;;;;13.43;6.20;;;;;;;7.14;100.00;99969.91;6215498;23;20005;-87
2021/01/20 03:58:04;;;;;;;14.38;6.18;;;;;;;7.00;100.00;99955.59;6217834;23;20005;-88
2021/01/20 04:00:29;;;;;;;13.32;6.75;;;;;;;7.04;100.00;99963.34;6226113;23;19997;-89
2021/01/20 04:02:55;;;;;;;12.85;6.45;;;;;;;7.15;100.00;99972.47;6224987;23;20442;-88
2021/01/20 04:05:20;;;;;;;12.18;6.15;;;;;;;7.16;100.00;99968.06;6226130;23;20006;-88
2021/01/20 04:07:45;;;;;;;13.48;6.22;;;;;;;7.14;100.00;99960.25;6228286;23;20000;-87
2021/01/20 04:10:11;;;;;;;9.43;5.53;;;;;;;7.20;100.00;99959.97;6221250;23;20004;-86
2021/01/20 04:12:37;;;;;;;11.70;5.28;;;;;;;7.21;100.00;99951.16;6217098;23;20012;-88
2021/01/20 04:15:07;;;;;;;8.15;5.10;;;;;;;7.38;100.00;99960.06;6215615;23;20048;-87
2021/01/20 04:17:34;;;;;;;9.45;5.00;;;;;;;7.30;100.00;99930.66;6218929;23;20011;-86
2021/01/20 04:19:59;;;;;;;9.32;5.47;;;;;;;7.36;100.00;99943.50;6223057;23;20008;-85
2021/01/20 04:22:25;;;;;;;9.45;5.88;;;;;;;7.24;100.00;99911.63;6216541;23;20378;-86
2021/01/20 04:24:50;;;;;;;10.63;5.55;;;;;;;7.37;100.00;99925.03;6220932;23;20001;-86
2021/01/20 04:27:16;;;;;;;11.27;6.25;;;;;;;7.46;100.00;99932.50;6222337;23;20004;-88
2021/01/20 04:29:41;;;;;;;10.93;5.95;;;;;;;7.35;100.00;99910.28;6217565;23;20471;-89
2021/01/20 04:32:07;;;;;;;9.90;5.70;;;;;;;7.47;100.00;99923.69;6219090;23;20020;-86
2021/01/20 04:34:45;;;;;;;8.27;4.78;;;;;;;7.44;100.00;99901.97;6224060;23;20012;-87
2021/01/20 04:37:10;;;;;;;7.90;5.47;;;;;;;7.37;100.00;99909.25;6217886;23;20036;-87
2021/01/20 04:39:35;;;;;;;10.43;5.43;;;;;;;7.35;100.00;99900.59;6221306;23;20360;-85
2021/01/20 04:42:01;;;;;;;9.55;5.15;;;;;;;7.40;100.00;99895.97;6222384;23;20005;-89
2021/01/20 04:44:32;;;;;;;7.80;5.18;;;;;;;7.51;100.00;99921.78;6222668;23;20008;-87
2021/01/20 04:47:00;;;;;;;9.38;5.40;;;;;;;7.46;100.00;99892.22;6219140;23;20438;-88
2021/01/20 04:49:27;;;;;;;9.40;5.20;;;;;;;7.46;100.00;99892.22;6217154;23;20012;-88
2021/01/20 04:51:54;;;;;;;8.93;5.18;;;;;;;7.45;100.00;99886.09;6214283;23;20058;-87
2021/01/20 04:54:20;;;;;;;7.43;5.22;;;;;;;7.56;100.00;99904.00;6219068;23;20020;-87
2021/01/20 04:56:46;;;;;;;11.70;4.38;;;;;;;7.62;100.00;99900.22;6220396;23;20323;-85
2021/01/20 04:59:11;;;;;;;8.40;4.72;;;;;;;7.62;100.00;99897.59;6222742;23;20001;-86
2021/01/20 05:01:40;;;;;;;14.65;5.47;;;;;;;7.49;100.00;99878.94;6221631;23;20008;-88
2021/01/20 05:04:07;;;;;;;9.98;4.55;;;;;;;7.51;100.00;99861.31;6224146;23;20012;-85
2021/01/20 05:06:32;;;;;;;9.60;4.75;;;;;;;7.60;100.00;99878.44;6223809;23;20419;-86
2021/01/20 05:08:58;;;;;;;10.52;5.30;;;;;;;7.66;100.00;99893.91;6228333;23;20019;-86
2021/01/20 05:11:43;;;;;;;7.80;4.88;;;;;;;7.58;100.00;99860.09;6228340;23;20052;-84
2021/01/20 05:14:17;;;;;;;9.30;4.88;;;;;;;7.74;100.00;99890.00;6229492;23;20074;-85
2021/01/20 05:16:50;;;;;;;11.57;4.90;;;;;;;7.68;100.00;99874.50;6226561;23;20423;-84
2021/01/20 05:19:39;;;;;;;13.15;4.93;;;;;;;7.68;100.00;99876.25;6222673;23;20000;-85
2021/01/20 05:22:07;;;;;;;6.22;4.13;;;;;;;7.71;100.00;99860.34;6220943;23;20004;-84
2021/01/20 05:24:36;;;;;;;8.52;4.03;;;;;;;7.85;100.00;99875.47;6218996;23;20060;-86
2021/01/20 05:29:58;;;;;;;7.65;3.35;;;;;;;7.85;100.00;99870.22;6216172;23;20005;-87
2021/01/20 05:32:44;;;;;;;12.38;6.55;;;;;;;7.69;100.00;99844.66;6217849;23;20004;-87
2021/01/20 05:35:12;;;;;;;9.68;3.58;;;;;;;7.83;100.00;99867.66;6220904;23;20008;-86
2021/01/20 05:37:44;;;;;;;7.53;4.10;;;;;;;7.89;100.00;99858.63;6218852;23;20144;-85
2021/01/20 05:40:15;;;;;;;11.45;5.15;;;;;;;7.87;100.00;99856.03;6222033;23;20062;-85
2021/01/20 05:42:45;;;;;;;5.78;4.07;;;;;;;7.78;100.00;99851.22;6218693;23;20008;-85
2021/01/20 05:45:11;;;;;;;8.82;4.00;;;;;;;7.82;100.00;99865.94;6217978;23;20001;-86
2021/01/20 05:47:37;;;;;;;6.85;4.15;;;;;;;7.75;100.00;99835.63;6218801;23;20000;-85
2021/01/20 05:50:07;;;;;;;16.55;4.97;;;;;;;7.85;100.00;99850.03;6222843;23;20012;-85
2021/01/20 05:52:33;;;;;;;8.68;4.35;;;;;;;7.77;100.00;99845.13;6222256;23;20419;-86
2021/01/20 05:54:58;;;;;;;6.88;4.63;;;;;;;7.85;100.00;99836.88;6221822;23;19996;-86
2021/01/20 05:57:28;;;;;;;7.25;4.50;;;;;;;7.83;100.00;99841.38;6219781;23;20009;-86
2021/01/20 05:59:53;;;;;;;10.55;4.18;;;;;;;7.75;100.00;99843.50;6215385;23;20011;-86
2021/01/20 06:02:19;;;;;;;7.80;4.88;;;;;;;7.87;100.00;99840.25;6216431;23;20393;-86
2021/01/20 06:04:49;;;;;;;6.45;4.00;;;;;;;7.87;100.00;99856.03;6218826;23;20080;-85
2021/01/20 06:07:15;;;;;;;7.18;3.90;;;;;;;7.87;100.00;99847.31;6218354;23;19996;-85
2021/01/20 06:10:05;;;;;;;10.38;4.95;;;;;;;7.78;100.00;99824.91;6223489;23;20002;-85
2021/01/20 06:12:30;;;;;;;8.77;3.80;;;;;;;7.85;100.00;99828.13;6220541;23;20005;-85
2021/01/20 06:14:57;;;;;;;9.65;4.20;;;;;;;7.80;100.00;99825.72;6226976;22;20705;-87
2021/01/20 06:17:47;;;;;;;8.95;3.58;;;;;;;7.89;100.00;99827.06;6222844;23;20092;-86
2021/01/20 06:20:20;;;;;;;6.45;3.78;;;;;;;7.85;100.00;99815.81;6229622;23;20067;-86
2021/01/20 06:22:50;;;;;;;9.90;3.53;;;;;;;7.90;100.00;99811.19;6225657;23;20008;-86
2021/01/20 06:25:35;;;;;;;11.48;4.50;;;;;;;7.76;100.00;99808.38;6228591;23;20012;-87
2021/01/20 06:28:07;;;;;;;7.00;4.15;;;;;;;7.87;100.00;99808.69;6220749;23;20015;-88
2021/01/20 06:30:39;;;;;;;7.05;3.25;;;;;;;7.97;100.00;99830.13;6219783;23;20011;-87
2021/01/20 06:33:41;;;;;;;10.18;3.65;;;;;;;7.90;100.00;99815.59;6222192;23;20000;-88
2021/01/20 06:36:07;;;;;;;5.55;3.58;;;;;;;8.01;100.00;99829.91;6247120;23;20004;-87
2021/01/20 06:38:38;;;;;;;7.45;4.10;;;;;;;7.99;100.00;99837.03;6218020;23;20028;-87
2021/01/20 06:41:07;;;;;;;10.70;3.67;;;;;;;7.93;100.00;99824.19;6217681;23;20004;-87
2021/01/20 06:43:40;;;;;;;9.48;3.45;;;;;;;7.87;100.00;99834.16;6219244;23;20008;-87
2021/01/20 06:46:27;;;;;;;5.93;3.30;;;;;;;7.96;100.00;99841.59;6218966;23;20149;-87
2021/01/20 06:48:55;;;;;;;5.47;3.15;;;;;;;7.92;100.00;99838.25;6217517;23;20012;-87
2021/01/20 06:51:25;;;;;;;10.90;3.85;;;;;;;7.77;100.00;99813.56;6218325;23;20019;-86
2021/01/20 06:54:04;;;;;;;7.75;3.92;;;;;;;7.92;100.00;99822.47;6223568;23;20035;-86
2021/01/20 06:56:40;;;;;;;8.38;3.42;;;;;;;7.89;100.00;99830.53;6249306;23;20000;-86
2021/01/20 06:59:24;;;;;;;;;;;;;;;7.85;100.00;99828.13;6258921;23;20008;-87
2021/01/20 07:02:02;;;;;;;7.10;4.00;;;;;;;7.84;100.00;99831.69;6223735;23;19904;-87
2021/01/20 07:04:37;;;;;;;6.50;3.58;;;;;;;7.87;100.00;99829.72;6227984;23;19996;-87
2021/01/20 07:07:13;;;;;;;5.10;3.20;;;;;;;7.85;100.00;99817.59;6228594;23;20394;-87
2021/01/20 07:09:50;;;;;;;5.88;3.65;;;;;;;7.84;100.00;99815.91;6247074;23;20007;-87
2021/01/20 07:12:17;;;;;;;6.32;3.65;;;;;;;7.83;100.00;99815.06;6220854;23;20660;-88
2021/01/20 07:14:43;;;;;;;5.53;2.90;;;;;;;7.73;100.00;99804.13;6220598;22;20023;-87
2021/01/20 07:17:10;;;;;;;7.00;3.50;;;;;;;7.78;100.00;99820.53;6248268;23;20004;-87
2021/01/20 07:19:37;;;;;;;5.28;3.28;;;;;;;7.79;100.00;99831.91;6220981;23;20747;-87
2021/01/20 07:22:04;;;;;;;6.00;2.90;;;;;;;7.82;100.00;99829.09;6220901;23;20004;-86
2021/01/20 07:24:32;;;;;;;5.32;3.22;;;;;;;7.77;100.00;99813.56;6220948;23;20004;-86
2021/01/20 07:27:08;;;;;;;8.85;2.92;;;;;;;7.79;100.00;99816.13;6240705;23;20003;-84
2021/01/20 07:38:12;;;;;;;7.40;3.90;;;;;;;7.60;100.00;99802.16;6234602;22;20050;-83
2021/01/20 07:40:40;;;;;;;8.55;4.05;;;;;;;7.52;100.00;99803.38;6224912;23;20090;-78
2021/01/20 07:43:06;;;;;;;5.38;3.35;;;;;;;7.63;100.00;99812.53;6223752;23;20011;-84
2021/01/20 07:45:40;;;;;;;7.13;3.70;;;;;;;7.59;100.00;99811.84;6222003;23;20031;-84
2021/01/20 07:48:28;;;;;;;6.00;3.50;;;;;;;7.61;100.00;99803.88;6223695;23;20000;-81
2021/01/20 07:50:53;;;;;;;7.93;4.15;;;;;;;7.56;100.00;99813.75;6222622;23;20082;-81
2021/01/20 07:53:21;;;;;;;5.25;3.55;;;;;;;7.40;100.00;99787.34;6223406;23;20012;-82
2021/01/20 07:55:52;;;;;;;6.13;3.65;;;;;;;7.55;100.00;99818.16;6251304;23;20689;-82
2021/01/20 07:58:26;;;;;;;8.68;3.40;;;;;;;7.43;100.00;99788.06;6221598;23;20077;-85
2021/01/20 08:00:52;;;;;;;7.25;3.92;;;;;;;7.41;100.00;99804.81;6247655;23;20000;-83
2021/01/20 08:03:37;;;;;;;9.95;4.07;;;;;;;7.45;100.00;99806.38;6246139;23;20004;-82
2021/01/20 08:06:07;;;;;;;9.05;3.58;;;;;;;7.51;100.00;99821.84;6248238;23;20003;-82
2021/01/20 08:09:08;;;;;;;9.05;3.97;;;;;;;7.45;100.00;99801.13;6223081;23;20004;-85
2021/01/20 08:11:33;;;;;;;11.13;3.95;;;;;;;7.51;100.00;99806.94;6221191;23;20068;-82
2021/01/20 08:14:00;;;;;;;5.57;3.30;;;;;;;7.57;100.00;99816.31;6248935;23;20437;-84
2021/01/20 08:16:31;;;;;;;5.80;3.17;;;;;;;7.60;100.00;99810.06;6247894;23;20053;-83
2021/01/20 08:19:18;;;;;;;10.43;2.17;;;;;;;7.61;100.00;99799.44;6248218;23;20741;-85
2021/01/20 08:21:58;;;;;;;6.35;3.30;;;;;;;7.63;100.00;99795.00;6247577;23;20007;-84
2021/01/20 08:24:24;;;;;;;4.72;2.45;;;;;;;7.73;100.00;99801.50;6246921;23;20004;-83
2021/01/20 08:26:58;;;;;;;5.53;2.97;;;;;;;7.75;100.00;99807.53;6220226;23;20004;-83
2021/01/20 08:29:52;;;;;;;5.80;2.80;;;;;;;7.70;100.00;99799.00;6245949;23;20004;-84
2021/01/20 08:32:18;;;;;;;3.30;2.28;;;;;;;7.79;100.00;99797.72;6221857;23;20030;-83
2021/01/20 08:34:48;;;;;;;5.30;3.05;;;;;;;7.83;100.00;99801.91;6245841;23;20000;-82
2021/01/20 08:37:20;;;;;;;4.85;2.28;;;;;;;7.85;100.00;99801.81;6247747;22;20016;-81
2021/01/20 08:39:59;;;;;;;7.15;2.80;;;;;;;7.84;100.00;99785.19;6220018;23;20000;-83
2021/01/20 08:42:38;;;;;;;5.43;2.78;;;;;;;7.90;100.00;99800.66;6219933;23;20000;-84
2021/01/20 08:45:39;;;;;;;2.67;2.00;;;;;;;7.90;100.00;99790.13;6246065;23;20007;-84
2021/01/20 08:48:54;;;;;;;6.25;2.88;;;;;;;7.90;100.00;99795.41;6219261;23;20373;-84
2021/01/20 08:51:33;;;;;;;7.00;2.80;;;;;;;7.92;100.00;99790.91;6068826;23;20034;-81
2021/01/20 08:54:13;;;;;;;9.48;2.90;;;;;;;7.97;100.00;99796.78;6096941;23;20045;-85
2021/01/20 08:56:39;;;;;;;4.05;2.08;;;;;;;8.01;100.00;99785.19;6089006;23;20041;-83
2021/01/20 08:59:04;;;;;;;3.45;2.25;;;;;;;8.03;100.00;99774.56;6095940;23;20098;-85
2021/01/20 09:01:29;;;;;;;4.00;2.10;;;;;;;8.10;100.00;99777.75;6073055;23;20779;-84
2021/01/20 09:04:02;;;;;;;3.92;1.70;;;;;;;8.11;100.00;99792.59;6070232;23;20006;-84
2021/01/20 09:06:31;;;;;;;5.78;3.00;;;;;;;8.09;100.00;99770.78;6068422;23;20450;-84
2021/01/20 09:09:08;;;;;;;6.07;2.25;;;;;;;8.20;100.00;99782.47;6072266;23;20017;-83
2021/01/20 09:11:53;;;;;;;;;;;;;;;8.24;100.00;99778.75;6074206;23;20011;-83
2021/01/20 09:14:18;;;;;;;9.47;2.40;;;;;;;8.23;100.00;99769.16;6093021;23;20346;-83
2021/01/20 09:16:43;;;;;;;10.80;2.55;;;;;;;8.32;100.00;99765.16;6093599;23;20043;-85
2021/01/20 09:19:09;;;;;;;7.63;2.03;;;;;;;8.39;99.74;99761.34;6093110;23;20006;-84
2021/01/20 09:21:34;;;;;;;7.78;2.33;;;;;;;8.49;98.78;99777.50;6092196;23;20824;-82
2021/01/20 09:23:59;;;;;;;5.10;2.30;;;;;;;8.62;98.23;99772.44;6068568;23;20022;-84
2021/01/20 09:26:24;;;;;;;5.68;3.13;;;;;;;8.68;97.88;99770.31;6069440;23;20475;-84
2021/01/20 09:28:50;;;;;;;5.28;2.30;;;;;;;8.65;98.09;99774.91;6230420;23;20004;-83
2021/01/20 09:31:15;;;;;;;9.10;2.85;;;;;;;8.65;96.72;99770.50;6240580;23;20015;-84
2021/01/20 09:34:19;;;;;;;3.10;2.03;;;;;;;8.67;95.56;99773.88;6249589;23;20004;-84
2021/01/20 09:37:03;;;;;;;11.40;2.67;;;;;;;8.64;95.34;99781.13;6211005;23;20012;-83
2021/01/20 09:39:48;;;;;;;4.82;1.90;;;;;;;8.63;94.61;99768.84;6226529;23;20483;-84
2021/01/20 09:42:28;;;;;;;5.18;1.95;;;;;;;8.62;93.78;99764.53;6229128;23;20005;-83
2021/01/20 09:45:33;;;;;;;5.60;2.05;;;;;;;8.73;94.18;99764.78;6230669;23;20000;-85
2021/01/20 09:48:02;;;;;;;5.75;2.05;;;;;;;8.67;93.57;99760.72;6181499;23;20001;-83
2021/01/20 09:50:33;;;;;;;4.57;2.22;;;;;;;8.66;93.70;99752.91;6183352;23;20019;-83
2021/01/20 09:52:58;;;;;;;5.32;2.33;;;;;;;8.70;94.72;99773.72;6158115;23;20947;-83
2021/01/20 09:55:48;;;;;;;4.45;2.33;;;;;;;8.60;94.46;99775.16;6157964;23;20009;-85
2021/01/20 09:58:47;;;;;;;4.70;2.25;;;;;;;8.50;93.15;99760.78;6169258;23;20016;-84
2021/01/20 10:01:13;;;;;;;6.10;2.05;;;;;;;8.49;93.61;99757.28;6159363;23;20180;-83
2021/01/20 10:03:38;;;;;;;7.30;2.38;;;;;;;8.52;92.85;99764.16;6184022;23;20016;-83
2021/01/20 10:06:04;;;;;;;7.80;3.25;;;;;;;8.49;93.10;99766.97;6161581;23;20009;-83
2021/01/20 10:08:29;;;;;;;4.07;2.25;;;;;;;8.50;92.72;99756.34;6158588;23;20741;-82
2021/01/20 10:10:54;;;;;;;3.42;2.03;;;;;;;8.48;92.12;99742.44;6158167;23;20013;-83
2021/01/20 10:13:22;;;;;;;2.47;1.52;;;;;;;8.43;91.86;99754.97;6184742;23;20327;-83
2021/01/20 10:15:47;;;;;;;7.28;2.42;;;;;;;8.46;92.92;99752.19;6185078;23;20020;-84
2021/01/20 10:18:12;;;;;;;4.38;2.38;;;;;;;8.52;91.70;99759.75;6190759;23;20016;-85
2021/01/20 10:20:37;;;;;;;10.63;2.50;;;;;;;8.42;91.19;99740.09;6216704;23;20009;-84
2021/01/20 10:23:03;;;;;;;4.25;2.20;;;;;;;8.52;90.11;99743.94;6211034;23;20339;-83
2021/01/20 10:25:34;;;;;;;4.55;1.88;;;;;;;8.54;90.12;99747.38;6212276;23;20044;-83
2021/01/20 10:28:00;;;;;;;4.90;2.10;;;;;;;8.51;90.54;99736.97;6202126;23;20387;-83
2021/01/20 10:30:29;;;;;;;3.80;2.20;;;;;;;8.49;89.89;99730.09;6205027;23;20008;-83
2021/01/20 10:33:00;;;;;;;5.47;2.22;;;;;;;8.57;91.38;99723.47;6204519;23;20075;-83
2021/01/20 10:35:25;;;;;;;7.53;2.45;;;;;;;8.50;90.27;99718.63;6207600;23;20015;-83
2021/01/20 10:37:51;;;;;;;4.63;2.17;;;;;;;8.51;90.62;99707.16;6204002;23;20020;-84
2021/01/20 10:40:16;;;;;;;5.50;2.17;;;;;;;8.62;90.84;99704.78;6205987;23;20624;-84
2021/01/20 10:42:42;;;;;;;8.80;2.88;;;;;;;8.73;89.82;99704.19;6203725;23;20526;-83
2021/01/20 10:45:08;;;;;;;5.72;2.25;;;;;;;8.88;89.35;99710.41;6204308;23;20000;-84
2021/01/20 10:47:34;;;;;;;5.20;2.58;;;;;;;8.80;88.34;99695.91;6208794;23;19997;-84
2021/01/20 10:49:59;;;;;;;8.50;2.50;;;;;;;9.06;87.89;99702.34;6215008;23;20747;-84
2021/01/20 10:52:25;;;;;;;4.05;2.00;;;;;;;8.88;88.26;99692.81;6218373;23;20222;-84
2021/01/20 10:54:51;;;;;;;6.22;2.80;;;;;;;9.02;87.65;99692.91;6215052;23;20017;-83
2021/01/20 10:57:18;;;;;;;2.75;1.80;;;;;;;9.02;86.11;99689.41;6215911;23;20437;-83
2021/01/20 10:59:43;;;;;;;3.97;2.20;;;;;;;9.06;86.33;99698.88;6205054;23;20004;-83
2021/01/20 11:02:09;;;;;;;6.63;2.42;;;;;;;9.25;84.97;99690.75;6209833;23;20011;-83
2021/01/20 11:04:34;;;;;;;6.47;2.00;;;;;;;9.42;84.27;99677.44;6207620;23;20497;-83
2021/01/20 11:07:00;;;;;;;5.20;2.25;;;;;;;9.51;84.38;99668.16;6206576;23;20007;-84
2021/01/20 11:09:26;;;;;;;7.10;2.63;;;;;;;9.18;84.10;99671.78;6205638;23;20008;-84
2021/01/20 11:11:51;;;;;;;4.55;1.90;;;;;;;9.04;84.76;99679.66;6201532;23;20008;-85
2021/01/20 11:14:17;;;;;;;5.93;2.20;;;;;;;8.98;85.44;99678.19;6205265;23;20005;-85
2021/01/20 11:16:54;;;;;;;4.60;2.00;;;;;;;8.87;84.62;99672.69;6205765;23;20092;-84
2021/01/20 11:19:19;;;;;;;5.18;2.10;;;;;;;8.77;85.07;99672.34;6211791;23;20680;-83
2021/01/20 11:21:45;;;;;;;4.18;2.10;;;;;;;8.75;86.00;99660.19;6207704;23;20028;-82
2021/01/20 11:24:10;;;;;;;3.65;2.53;;;;;;;8.70;87.50;99656.97;6207844;23;20318;-82
2021/01/20 11:26:36;;;;;;;5.70;2.22;;;;;;;8.66;86.38;99653.66;6209273;23;20052;-85
2021/01/20 11:29:02;;;;;;;3.00;1.75;;;;;;;8.69;86.64;99648.22;6210883;23;20015;-82
2021/01/20 11:31:27;;;;;;;10.73;2.75;;;;;;;8.70;87.34;99649.91;6205003;23;20036;-83
2021/01/20 11:33:54;;;;;;;5.00;2.33;;;;;;;8.68;87.58;99648.28;6206646;23;20370;-83
2021/01/20 11:36:20;;;;;;;3.50;1.95;;;;;;;8.67;86.57;99649.22;6217739;22;20009;-83
2021/01/20 11:38:45;;;;;;;9.95;2.50;;;;;;;8.66;86.60;99651.03;6242711;23;20008;-83
2021/01/20 11:41:10;;;;;;;7.82;1.90;;;;;;;8.61;86.83;99633.78;6213635;23;20004;-83
2021/01/20 11:43:35;;;;;;;4.00;2.03;;;;;;;8.56;86.57;99624.34;6211357;23;20007;-82
2021/01/20 11:46:01;;;;;;;5.07;2.20;;;;;;;8.59;86.92;99640.94;6215383;23;20035;-83
2021/01/20 11:48:26;;;;;;;4.55;2.38;;;;;;;8.53;87.04;99628.91;6238965;23;20000;-82
2021/01/20 11:50:51;;;;;;;5.85;2.03;;;;;;;8.60;86.71;99629.44;6238954;23;20101;-83
2021/01/20 11:53:16;;;;;;;5.47;2.22;;;;;;;8.65;86.44;99628.25;6240514;23;20000;-83